Terminal Aerodrome Forecast
Issued by NWS Cleveland, OH

Home | Current Version | Previous Version | Text Only | Print | Product List | Glossary On
Versions: 1 2 3 4 5 6 7 8 9 10 11 12 13 14 15 16 17 18 19 20 21 22 23 24 25 26 27 28 29 30 31 32 33 34 35 36 37 38 39 40
000
FTUS41 KCLE 191120
TAFERI
TAF
KERI 191120Z 1912/2012 VRB02KT P6SM BKN025 BKN060
     FM191500 36005KT P6SM BKN060
     FM200000 04005KT P6SM OVC050
     FM200600 07005KT 6SM -SHRA BR OVC025
     FM200900 06004KT 4SM -TSRA BR OVC020CB=

USA.gov is the U.S. government's official web portal to all federal, state and local government web resources and services.